createdAt,value
2023-05-19T00:01:50.387Z,4.27
2023-05-19T00:04:19.233Z,4.30
2023-05-19T00:06:51.575Z,4.00
2023-05-19T00:09:20.280Z,4.93
2023-05-19T00:11:48.866Z,4.70
2023-05-19T00:14:19.096Z,4.47
2023-05-19T00:16:48.786Z,4.03
2023-05-19T00:19:17.849Z,5.23
2023-05-19T00:21:46.414Z,4.00
2023-05-19T00:24:15.177Z,4.80
2023-05-19T00:26:43.591Z,4.60
2023-05-19T00:29:12.071Z,4.47
2023-05-19T00:31:41.956Z,4.70
2023-05-19T00:34:10.296Z,4.87
2023-05-19T00:36:38.759Z,5.40
2023-05-19T00:39:07.907Z,4.20
2023-05-19T00:41:36.437Z,4.10
2023-05-19T00:44:04.851Z,4.87
2023-05-19T00:46:33.447Z,5.10
2023-05-19T00:49:03.293Z,4.93
2023-05-19T00:51:32.227Z,4.30
2023-05-19T00:54:00.735Z,5.00
2023-05-19T00:56:29.234Z,4.90
2023-05-19T00:58:57.982Z,4.60
2023-05-19T01:01:26.848Z,5.47
2023-05-19T01:06:27.853Z,5.63
2023-05-19T01:08:57.374Z,4.80
2023-05-19T01:11:25.938Z,4.27
2023-05-19T01:13:54.377Z,4.70
2023-05-19T01:16:26.643Z,4.60
2023-05-19T01:19:01.851Z,4.30
2023-05-19T01:21:53.405Z,4.50
2023-05-19T01:24:27.420Z,4.90
2023-05-19T01:27:07.820Z,4.73
2023-05-19T01:29:43.767Z,4.50
2023-05-19T01:32:13.879Z,4.90
2023-05-19T01:34:44.832Z,4.93
2023-05-19T01:37:14.260Z,5.03
2023-05-19T01:39:43.710Z,4.67
2023-05-19T01:42:12.872Z,5.80
2023-05-19T01:44:41.373Z,5.90
2023-05-19T01:47:11.203Z,4.73
2023-05-19T01:49:41.041Z,4.33
2023-05-19T01:52:09.475Z,4.73
2023-05-19T01:54:38.004Z,5.03
2023-05-19T01:57:11.659Z,4.40
2023-05-19T01:59:48.980Z,4.73
2023-05-19T02:02:28.357Z,4.93
2023-05-19T02:05:01.780Z,5.10
2023-05-19T02:07:33.470Z,4.40
2023-05-19T02:10:06.481Z,5.67
2023-05-19T02:12:36.342Z,5.20
2023-05-19T02:15:06.664Z,5.43
2023-05-19T02:17:37.295Z,4.90
2023-05-19T02:20:08.965Z,4.50
2023-05-19T02:22:37.842Z,5.60
2023-05-19T02:25:06.961Z,4.90
2023-05-19T02:27:35.633Z,5.53
2023-05-19T02:30:04.509Z,5.07
2023-05-19T02:32:33.514Z,4.33
2023-05-19T02:35:02.049Z,5.53
2023-05-19T02:37:32.580Z,5.00
2023-05-19T02:40:01.162Z,4.90
2023-05-19T02:42:29.775Z,5.40
2023-05-19T02:44:58.218Z,4.50
2023-05-19T02:47:26.698Z,5.23
2023-05-19T02:49:55.168Z,4.70
2023-05-19T02:52:23.662Z,5.13
2023-05-19T02:54:53.418Z,5.17
2023-05-19T02:57:22.046Z,4.90
2023-05-19T02:59:51.077Z,4.83
2023-05-19T03:02:19.568Z,4.87
2023-05-19T03:04:48.005Z,5.50
2023-05-19T03:07:16.531Z,5.00
2023-05-19T03:09:44.855Z,5.10
2023-05-19T03:12:14.673Z,4.50
2023-05-19T03:14:44.219Z,4.53
2023-05-19T03:17:13.123Z,4.77
2023-05-19T03:19:41.656Z,4.93
2023-05-19T03:22:10.186Z,4.93
2023-05-19T03:24:38.580Z,5.30
2023-05-19T03:27:07.162Z,4.57
2023-05-19T03:29:37.277Z,4.47
2023-05-19T03:32:06.016Z,5.10
2023-05-19T03:34:35.466Z,5.43
2023-05-19T03:37:03.981Z,4.37
2023-05-19T03:39:32.882Z,4.50
2023-05-19T03:42:01.227Z,4.67
2023-05-19T03:44:29.639Z,4.50
2023-05-19T03:46:59.463Z,5.40
2023-05-19T03:49:28.035Z,4.90
2023-05-19T03:51:56.515Z,5.33
2023-05-19T03:54:24.950Z,5.03
2023-05-19T03:56:53.518Z,4.63
2023-05-19T03:59:23.649Z,4.87
2023-05-19T04:01:52.885Z,5.40
2023-05-19T04:04:22.987Z,4.87
2023-05-19T04:06:51.400Z,4.33
2023-05-19T04:09:19.870Z,4.70
2023-05-19T04:11:48.212Z,5.00
2023-05-19T04:14:16.763Z,5.40
2023-05-19T04:16:45.371Z,4.60
2023-05-19T04:19:13.782Z,5.23
2023-05-19T04:21:43.712Z,5.30
2023-05-19T04:24:12.142Z,4.90
2023-05-19T04:26:42.424Z,5.43
2023-05-19T04:29:10.818Z,5.50
2023-05-19T04:31:41.017Z,6.20
2023-05-19T04:34:10.020Z,4.73
2023-05-19T04:36:38.585Z,5.20
2023-05-19T04:39:12.210Z,5.30
2023-05-19T04:41:42.112Z,4.90
2023-05-19T04:44:10.946Z,4.73
2023-05-19T04:46:39.554Z,4.83
2023-05-19T04:49:08.090Z,5.37
2023-05-19T04:51:36.597Z,4.50
2023-05-19T04:54:05.076Z,5.50
2023-05-19T04:56:35.100Z,5.17
2023-05-19T04:59:03.743Z,5.70
2023-05-19T05:01:33.082Z,4.40
2023-05-19T05:04:02.766Z,4.73
2023-05-19T05:06:31.805Z,4.30
2023-05-19T05:09:00.644Z,4.60
2023-05-19T05:11:29.309Z,4.30
2023-05-19T05:13:59.535Z,4.93
2023-05-19T05:16:28.390Z,4.47
2023-05-19T05:18:57.488Z,5.50
2023-05-19T05:21:26.305Z,5.23
2023-05-19T05:23:55.009Z,4.50
2023-05-19T05:26:24.131Z,5.43
2023-05-19T05:28:52.657Z,5.47
2023-05-19T05:31:22.486Z,5.00
2023-05-19T05:33:50.921Z,5.50
2023-05-19T05:36:19.341Z,4.80
2023-05-19T05:38:47.683Z,5.27
2023-05-19T05:41:16.095Z,4.57
2023-05-19T05:43:44.521Z,5.20
2023-05-19T05:46:12.949Z,4.23
2023-05-19T05:48:43.175Z,5.23
2023-05-19T05:51:12.013Z,3.90
2023-05-19T05:53:44.019Z,4.90
2023-05-19T05:56:13.258Z,3.90
2023-05-19T05:58:41.689Z,4.63
2023-05-19T06:01:11.593Z,4.60
2023-05-19T06:03:40.919Z,4.27
2023-05-19T06:06:12.071Z,4.40
2023-05-19T06:08:40.549Z,5.10
2023-05-19T06:11:09.478Z,4.27
2023-05-19T06:13:38.135Z,4.50
2023-05-19T06:16:06.962Z,4.90
2023-05-19T06:18:35.403Z,4.80
2023-05-19T06:21:04.292Z,4.17
2023-05-19T06:23:33.946Z,3.90
2023-05-19T06:26:02.363Z,3.50
2023-05-19T06:28:31.684Z,4.00
2023-05-19T06:31:00.226Z,4.53
2023-05-19T06:33:29.352Z,4.83
2023-05-19T06:35:58.258Z,4.60
2023-05-19T06:38:26.677Z,4.33
2023-05-19T06:40:56.490Z,4.20
2023-05-19T06:43:25.727Z,4.20
2023-05-19T06:45:54.228Z,4.07
2023-05-19T06:48:22.753Z,4.70
2023-05-19T06:50:51.888Z,3.70
2023-05-19T06:53:21.293Z,3.40
2023-05-19T06:55:58.588Z,4.03
2023-05-19T06:58:29.583Z,3.20
2023-05-19T07:00:58.036Z,3.70
2023-05-19T07:03:27.275Z,3.23
2023-05-19T07:05:55.746Z,3.57
2023-05-19T07:08:24.278Z,3.60
2023-05-19T07:10:52.801Z,3.30
2023-05-19T07:13:21.134Z,3.50
2023-05-19T07:15:52.400Z,3.43
2023-05-19T07:18:21.013Z,3.73
2023-05-19T07:20:49.489Z,4.27
2023-05-19T07:23:17.974Z,3.57
2023-05-19T07:25:46.507Z,3.40
2023-05-19T07:28:14.986Z,3.50
2023-05-19T07:30:43.469Z,4.30
2023-05-19T07:33:13.489Z,3.33
2023-05-19T07:35:42.114Z,3.80
2023-05-19T07:38:10.629Z,3.63
2023-05-19T07:40:39.135Z,3.63
2023-05-19T07:43:07.540Z,3.60
2023-05-19T07:45:35.964Z,3.33
2023-05-19T07:48:04.535Z,3.83
2023-05-19T07:50:34.638Z,3.93
2023-05-19T07:53:03.120Z,4.00
2023-05-19T07:55:31.612Z,3.77
2023-05-19T07:57:59.980Z,3.50
2023-05-19T08:00:28.537Z,3.87
2023-05-19T08:02:58.128Z,3.27
2023-05-19T08:05:26.815Z,3.40
2023-05-19T08:07:56.622Z,3.70
2023-05-19T08:10:25.199Z,3.43
2023-05-19T08:12:53.688Z,4.00
2023-05-19T08:15:22.351Z,3.20
2023-05-19T08:17:51.512Z,3.33
2023-05-19T08:20:20.443Z,3.43
2023-05-19T08:22:48.990Z,3.40
2023-05-19T08:25:19.909Z,3.20
2023-05-19T08:27:48.315Z,3.03
2023-05-19T08:30:16.758Z,3.13
2023-05-19T08:32:45.223Z,2.80
2023-05-19T08:35:13.763Z,3.60
2023-05-19T08:37:42.200Z,3.10
2023-05-19T08:40:13.950Z,3.27
2023-05-19T08:42:43.883Z,4.07
2023-05-19T08:45:12.545Z,3.10
2023-05-19T08:47:41.738Z,3.50
2023-05-19T08:50:11.083Z,3.33
2023-05-19T08:52:47.837Z,3.27
2023-05-19T08:55:25.937Z,3.33
2023-05-19T08:57:55.948Z,4.00
2023-05-19T09:00:24.980Z,3.60
2023-05-19T09:03:00.167Z,3.33
2023-05-19T09:05:34.930Z,3.40
2023-05-19T09:08:04.349Z,3.47
2023-05-19T09:10:32.786Z,3.73
2023-05-19T09:13:02.492Z,3.90
2023-05-19T09:15:31.775Z,3.80
2023-05-19T09:18:09.039Z,3.63
2023-05-19T09:20:41.591Z,4.20
2023-05-19T09:23:10.073Z,3.97
2023-05-19T09:25:38.465Z,4.10
2023-05-19T09:28:10.690Z,3.57
2023-05-19T09:30:39.410Z,3.70
2023-05-19T09:33:10.143Z,3.83
2023-05-19T09:35:38.841Z,3.90
2023-05-19T09:38:07.617Z,3.40
2023-05-19T09:40:36.220Z,3.47
2023-05-19T09:43:09.813Z,3.40
2023-05-19T09:45:38.356Z,4.33
2023-05-19T09:48:07.097Z,4.00
2023-05-19T09:50:35.734Z,4.30
2023-05-19T09:53:04.249Z,3.40
2023-05-19T09:55:34.593Z,3.33
2023-05-19T09:58:04.816Z,3.90
2023-05-19T10:00:34.953Z,4.27
2023-05-19T10:03:06.084Z,4.03
2023-05-19T10:05:35.306Z,4.00
2023-05-19T10:08:07.460Z,3.90
2023-05-19T10:10:36.125Z,4.40
2023-05-19T10:13:05.311Z,4.33
2023-05-19T10:15:40.748Z,3.70
2023-05-19T10:18:12.786Z,3.83
2023-05-19T10:20:42.115Z,3.93
2023-05-19T10:23:10.738Z,4.47
2023-05-19T10:25:39.740Z,4.83
2023-05-19T10:28:10.736Z,4.73
2023-05-19T10:30:41.737Z,3.53
2023-05-19T10:33:13.062Z,4.40
2023-05-19T10:35:50.055Z,4.57
2023-05-19T10:38:22.745Z,4.50
2023-05-19T10:40:55.869Z,4.57
2023-05-19T10:43:27.625Z,4.70
2023-05-19T10:45:59.002Z,4.73
2023-05-19T10:48:27.508Z,5.63
2023-05-19T10:51:00.956Z,5.60
2023-05-19T10:53:32.562Z,5.27
2023-05-19T10:56:04.149Z,5.57
2023-05-19T10:58:39.719Z,5.20
2023-05-19T11:01:14.844Z,5.40
2023-05-19T11:03:47.354Z,4.67
2023-05-19T11:06:22.775Z,4.80
2023-05-19T11:08:54.746Z,4.30
2023-05-19T11:11:23.694Z,5.70
2023-05-19T11:13:56.275Z,5.50
2023-05-19T11:16:33.645Z,4.90
2023-05-19T11:19:02.328Z,4.80
2023-05-19T11:21:43.672Z,5.47
2023-05-19T11:24:12.181Z,5.50
2023-05-19T11:26:44.437Z,5.20
2023-05-19T11:29:13.003Z,6.20
2023-05-19T11:31:45.634Z,4.80
2023-05-19T11:34:14.203Z,5.50
2023-05-19T11:36:43.863Z,5.60
2023-05-19T11:39:13.573Z,5.53
2023-05-19T11:41:42.089Z,5.43
2023-05-19T11:44:12.403Z,5.20
2023-05-19T11:46:41.026Z,4.73
2023-05-19T11:49:11.032Z,4.70
2023-05-19T11:51:39.523Z,4.67
2023-05-19T11:54:07.828Z,5.17
2023-05-19T11:56:36.849Z,5.43
2023-05-19T11:59:05.596Z,4.60
2023-05-19T12:01:34.816Z,5.60
2023-05-19T12:04:03.296Z,5.43
2023-05-19T12:06:33.464Z,5.23
2023-05-19T12:09:02.061Z,5.17
2023-05-19T12:11:31.884Z,5.47
2023-05-19T12:14:00.960Z,6.00
2023-05-19T12:16:35.433Z,5.53
2023-05-19T12:19:04.148Z,5.70
2023-05-19T12:21:34.551Z,6.20
2023-05-19T12:24:03.352Z,5.80
2023-05-19T12:26:31.809Z,6.00
2023-05-19T12:29:00.604Z,5.90
2023-05-19T12:31:29.143Z,6.30
2023-05-19T12:33:57.823Z,7.00
2023-05-19T12:36:27.169Z,6.20
2023-05-19T12:38:57.565Z,8.00
2023-05-19T12:41:27.359Z,6.83
2023-05-19T12:43:56.446Z,7.63
2023-05-19T12:46:25.145Z,8.23
2023-05-19T12:48:53.946Z,8.43
2023-05-19T12:51:22.460Z,8.67
2023-05-19T12:53:52.043Z,8.67
2023-05-19T12:56:22.240Z,9.07
2023-05-19T12:58:55.277Z,8.40
2023-05-19T13:01:24.708Z,8.60
2023-05-19T13:03:53.462Z,8.77
2023-05-19T13:06:22.104Z,8.50
2023-05-19T13:08:50.545Z,8.67
2023-05-19T13:11:19.187Z,8.20
2023-05-19T13:13:48.981Z,9.17
2023-05-19T13:16:17.477Z,8.50
2023-05-19T13:18:46.019Z,8.67
2023-05-19T13:21:15.137Z,9.40
2023-05-19T13:23:43.617Z,8.67
2023-05-19T13:26:13.392Z,8.50
2023-05-19T13:28:41.917Z,9.87
2023-05-19T13:31:11.787Z,7.73
2023-05-19T13:33:40.209Z,9.13
2023-05-19T13:36:08.851Z,8.40
2023-05-19T13:38:37.225Z,8.77
2023-05-19T13:41:05.710Z,8.67
2023-05-19T13:43:34.152Z,8.17
2023-05-19T13:46:02.721Z,7.70
2023-05-19T13:48:32.646Z,8.30
2023-05-19T13:51:01.227Z,8.70
2023-05-19T13:53:31.119Z,8.43
2023-05-19T13:55:59.608Z,8.20
2023-05-19T13:58:27.991Z,7.77
2023-05-19T14:00:57.088Z,8.47
2023-05-19T14:03:26.242Z,8.10
2023-05-19T14:05:56.147Z,8.57
2023-05-19T14:08:24.581Z,8.10
2023-05-19T14:10:53.219Z,8.00
2023-05-19T14:13:32.595Z,7.20
2023-05-19T14:16:03.198Z,7.97
2023-05-19T14:18:32.426Z,8.20
2023-05-19T14:21:02.346Z,7.47
2023-05-19T14:23:30.918Z,7.40
2023-05-19T14:25:59.462Z,8.00
2023-05-19T14:28:28.152Z,8.47
2023-05-19T14:30:56.616Z,8.23
2023-05-19T14:33:25.068Z,7.07
2023-05-19T14:35:53.928Z,7.47
2023-05-19T14:38:23.799Z,7.70
2023-05-19T14:40:52.233Z,7.53
2023-05-19T14:43:20.673Z,7.30
2023-05-19T14:45:49.049Z,7.40
2023-05-19T14:48:17.673Z,7.87
2023-05-19T14:50:48.226Z,7.40
2023-05-19T14:53:16.802Z,7.30
2023-05-19T14:55:46.805Z,7.73
2023-05-19T14:58:27.477Z,7.30
2023-05-19T15:00:59.114Z,7.63
2023-05-19T15:03:27.793Z,7.20
2023-05-19T15:05:56.296Z,8.00
2023-05-19T15:08:24.695Z,6.97
2023-05-19T15:10:54.408Z,7.23
2023-05-19T15:13:22.770Z,7.07
2023-05-19T15:16:08.326Z,7.30
2023-05-19T15:18:43.931Z,7.60
2023-05-19T15:21:12.576Z,7.27
2023-05-19T15:23:41.057Z,7.70
2023-05-19T15:26:10.990Z,8.23
2023-05-19T15:28:39.380Z,7.33
2023-05-19T15:31:07.964Z,8.00
2023-05-19T15:33:36.867Z,6.73
2023-05-19T15:36:05.373Z,7.00
2023-05-19T15:38:37.276Z,7.33
2023-05-19T15:41:08.770Z,7.43
2023-05-19T15:43:38.893Z,7.37
2023-05-19T15:46:07.394Z,8.73
2023-05-19T15:48:35.887Z,7.37
2023-05-19T15:51:04.310Z,8.00
2023-05-19T15:53:32.730Z,6.70
2023-05-19T15:56:01.752Z,7.43
2023-05-19T15:58:31.674Z,7.07
2023-05-19T16:01:01.643Z,8.40
2023-05-19T16:03:30.772Z,8.57
2023-05-19T16:05:59.438Z,7.57
2023-05-19T16:08:28.033Z,7.53
2023-05-19T16:10:56.495Z,7.50
2023-05-19T16:13:24.997Z,7.70
2023-05-19T16:15:53.803Z,7.80
2023-05-19T16:18:23.897Z,7.90
2023-05-19T16:20:52.565Z,7.37
